• Join FlightAware (Why Join?)
  • Login
  • US Flag 
03:46PM EST


 

Airport Tracker/Info


-or-


 

Live Flight TrackerFlight Track Log ✈ UAL656 ✈ 27-Aug-2013 ✈ KORD - KALB

Flight Track Log - Related Links

Times and Time Zones

All times are in EDT time to prevent confusion due to time zone crossing. See the UAL656 flight status page for this flight to view local times or setup timezone preferences in your user account.

Time Position Orientation Groundspeed Altitude Reporting Facility
EDT Latitude Longitude Course Direction KTS MPH feet Rate Location/Type
03:38PM 42.0000 -87.9500 71° East 162 186 1,900  Level Chicago TRACON
03:39PM 42.0500 -87.9667 346° North 237 273 3,200 1,980 Climbing Chicago TRACON
03:40PM 42.1119 -87.5120 62° Northeast  Level FlightAware Approximate
03:40PM 42.1000 -87.8667 56° Northeast 295 339 5,700  Level Chicago TRACON
03:41PM 42.1635 -87.3762 66° East  Level FlightAware Approximate
03:42PM 42.2099 -87.2369 66° East  Level FlightAware Approximate
03:42PM 42.1347 -87.6875 75° East 305 351 11,400  Level Chicago Center
03:43PM 42.2550 -87.0968 71° East  Level FlightAware Approximate
03:43PM 42.1578 -87.5764 74° East 309 356 14,300  Level Chicago Center
03:44PM 42.1644 -87.4508 86° East 330 380 16,800 2,460 Climbing Chicago Center
03:45PM 42.1756 -87.2925 85° East 352 405 19,500 2,280 Climbing Chicago Center
03:46PM 42.1842 -87.1561 85° East 366 421 21,600 1,500 Climbing Chicago Center
03:47PM 42.1925 -87.0156 85° East 376 433 22,700 900 Climbing Chicago Center
03:48PM 42.2031 -86.8583 85° East 415 478 23,500 840 Climbing Chicago Center
03:49PM 42.2136 -86.6722 86° East 452 520 24,500 1,080 Climbing Chicago Center
03:50PM 42.2242 -86.4967 85° East 467 537 25,800 1,140 Climbing Chicago Center
03:51PM 42.2344 -86.3194 85° East 473 544 26,900 1,080 Climbing Chicago Center
03:52PM 42.2444 -86.1381 86° East 483 556 28,100 1,200 Climbing Chicago Center
03:53PM 42.2561 -85.9325 86° East 490 564 29,500 1,320 Climbing Chicago Center
03:54PM 42.2644 -85.7539 86° East 484 557 30,900 1,260 Climbing Chicago Center
03:55PM 42.2736 -85.5731 86° East 486 559 32,200 1,260 Climbing Chicago Center
03:56PM 42.2836 -85.3911 86° East 490 564 33,600 1,320 Climbing Chicago Center
03:57PM 42.2939 -85.1789 86° East 476 548 35,000 660 Climbing Chicago Center
03:58PM 42.3011 -85.0031 87° East 471 542 35,000  Level Chicago Center
03:59PM 42.2958 -84.8272 92° East 472 543 35,000  Level Chicago Center
04:00PM 42.2925 -84.6500 91° East 474 545 35,000  Level Chicago Center
04:01PM 42.2903 -84.4744 91° East 471 542 35,000  Level Chicago Center
04:02PM 42.3153 -84.2742 80° East 447 514 35,000  Level Chicago Center
04:03PM 42.3383 -84.1083 79° East 449 517 35,000  Level Chicago Center
04:04PM 42.3583 -83.9636 79° East 448 516 35,000  Level Cleveland Center
04:05PM 42.3819 -83.7964 79° East 448 516 35,000  Level Cleveland Center
04:06PM 42.4072 -83.6289 78° East 448 516 35,000  Level Cleveland Center
04:07PM 42.4122 -83.4378 88° East 453 521 35,000  Level Cleveland Center
04:08PM 42.4181 -83.2833 87° East 453 521 35,000  Level Cleveland Center
04:09PM 42.4267 -83.0867 87° East 460 529 35,000  Level Cleveland Center
04:10PM 42.4303 -82.9097 88° East 460 529 35,000  Level Cleveland Center
04:11PM 42.4358 -82.7325 88° East 465 535 35,000  Level Cleveland Center
04:12PM 42.4411 -82.5611 88° East 465 535 35,000  Level Cleveland Center
04:13PM 42.4461 -82.3839 88° East 465 535 35,000  Level Cleveland Center
04:14PM 42.4508 -82.2097 88° East 459 528 35,000  Level Cleveland Center
04:15PM 42.4553 -82.0325 88° East 459 528 35,100  Climbing Cleveland Center
04:16PM 42.4594 -81.8525 88° East 464 534 35,000 -60 Descending Cleveland Center
04:17PM 42.4656 -81.6725 87° East 474 545 35,000  Level Cleveland Center
04:18PM 42.4692 -81.4894 88° East 479 551 35,100  Climbing Cleveland Center
04:19PM 42.4744 -81.3094 88° East 479 551 35,000 -60 Descending Cleveland Center
04:20PM 42.4756 -81.1264 89° East 479 551 35,000  Level Cleveland Center
04:21PM 42.4783 -80.9464 89° East 471 542 35,000  Level Cleveland Center
04:22PM 42.4831 -80.7858 88° East 471 542 35,000  Level Cleveland Center
04:23PM 42.4831 -80.6086 90° East 472 543 35,000  Level Cleveland Center
04:24PM 42.4872 -80.4339 88° East 472 543 35,000  Level Cleveland Center
04:25PM 42.4994 -80.2536 85° East 472 543 35,000  Level Cleveland Center
04:26PM 42.5092 -80.0761 86° East 472 543 35,000  Level Cleveland Center
04:27PM 42.5269 -79.9014 82° East 477 549 35,000  Level Cleveland Center
04:28PM 42.5361 -79.7239 86° East 472 543 35,000  Level Cleveland Center
04:29PM 42.5472 -79.5461 85° East 472 543 35,000  Level Cleveland Center
04:30PM 42.5539 -79.3711 87° East 472 543 35,000  Level Cleveland Center
04:31PM 42.5664 -79.1906 85° East 481 554 35,000  Level Cleveland Center
04:32PM 42.5767 -79.0100 86° East 481 554 35,000  Level Cleveland Center
04:33PM 42.5867 -78.8319 86° East 481 554 35,000 -180 Level Cleveland Center
04:34PM 42.5964 -78.6539 86° East 481 554 34,700 -1,200 Descending Cleveland Center
04:35PM 42.6056 -78.4761 86° East 476 548 32,700 -1,380 Descending Cleveland Center
04:36PM 42.6128 -78.2953 87° East 476 548 32,000 -360 Descending Cleveland Center
04:37PM 42.6236 -78.1197 85° East 476 548 32,000 -120 Level Cleveland Center
04:38PM 42.6322 -77.9444 86° East 476 548 31,800 -1,260 Descending Cleveland Center
04:39PM 42.6406 -77.7661 86° East 476 548 29,500 -1,500 Descending Cleveland Center
04:40PM 42.6422 -77.5883 89° East 471 542 28,800 -840 Descending Cleveland Center
04:43PM 42.6628 -77.2156 86° East 476 548 27,000 -960 Descending Boston Center
04:44PM 42.6697 -77.0464 87° East 464 534 25,900 -1,020 Descending Boston Center
04:45PM 42.6783 -76.8833 86° East 445 512 25,000 -480 Descending Boston Center
04:46PM 42.6825 -76.7169 88° East 439 505 25,000  Level Boston Center
04:47PM 42.6886 -76.5506 87° East 439 505 25,000 -360 Level Boston Center
04:48PM 42.6944 -76.3869 87° East 439 505 24,300 -1,320 Descending Boston Center
04:49PM 42.6997 -76.2319 87° East 431 496 22,400 -2,160 Descending Boston Center
04:50PM 42.7028 -76.0767 88° East 418 481 20,100 -1,800 Descending Boston Center
04:51PM 42.7075 -75.9269 87° East 405 466 18,900 -1,440 Descending Boston Center
04:52PM 42.7097 -75.7803 89° East 394 453 17,200 -1,620 Descending Boston Center
04:53PM 42.7075 -75.6389 91° East 388 447 15,700 -1,740 Descending Boston Center
04:54PM 42.6906 -75.5050 100° East 373 429 13,800 -1,920 Descending Boston Center
04:55PM 42.6753 -75.3744 99° East 361 415 12,000 -1,740 Descending Boston Center
04:56PM 42.6597 -75.2467 99° East 348 400 10,300 -1,020 Descending Boston Center
04:57PM 42.6439 -75.1217 100° East 341 392 10,000 -180 Descending Boston Center
04:58PM 42.6281 -74.9967 100° East 335 386 10,000  Level Boston Center
04:59PM 42.6119 -74.8747 100° East 335 386 10,000  Level Boston Center
05:00PM 42.5958 -74.7417 99° East 335 386 10,000  Level Boston Center
05:01PM 42.5833 -74.6425 100° East 313 360 10,000  Level Boston Center
05:02PM 42.5689 -74.5178 99° East 308 354 10,000 -660 Level Boston Center
05:03PM 42.5564 -74.4047 98° East 308 354 8,700 -1,260 Descending Boston Center
05:04PM 42.5458 -74.2972 98° East 295 339 7,500 -1,440 Descending Boston Center
05:05PM 42.5350 -74.1897 98° East 285 328 5,900 -1,320 Descending Boston Center
05:06PM 42.5550 -74.0917 74° East 269 310 4,900 -1,260 Descending Boston Center
05:07PM 42.5856 -73.9994 66° East 264 304 3,500 -900 Descending Boston Center
05:08PM 42.6222 -73.9100 61° Northeast 231 266 3,000 -720 Descending Boston Center
05:09PM 42.6481 -73.8458 61° Northeast 234 269 2,200 -480 Descending Boston Center
05:10PM 42.6761 -73.7758 61° Northeast 234 269 2,200 -720 Level Boston Center
05:11PM 42.7278 -73.8081 335° Northwest 127 146 600 -1,320 Descending Boston Center